createdAt,value
2019-04-11T00:00:39.611Z,7.47
2019-04-11T00:03:11.344Z,8.60
2019-04-11T00:05:41.341Z,8.10
2019-04-11T00:08:10.648Z,8.63
2019-04-11T00:10:41.685Z,9.20
2019-04-11T00:13:19.823Z,7.80
2019-04-11T00:15:42.567Z,8.87
2019-04-11T00:18:12.411Z,8.73
2019-04-11T00:20:45.122Z,11.50
2019-04-11T00:23:14.466Z,8.17
2019-04-11T00:25:44.093Z,8.37
2019-04-11T00:28:17.396Z,10.03
2019-04-11T00:30:46.215Z,9.73
2019-04-11T00:33:16.123Z,9.33
2019-04-11T00:35:46.051Z,9.85
2019-04-11T00:38:16.005Z,11.13
2019-04-11T00:40:45.835Z,10.00
2019-04-11T00:43:28.065Z,9.73
2019-04-11T00:45:48.101Z,10.43
2019-04-11T00:48:19.707Z,10.57
2019-04-11T00:50:49.626Z,9.47
2019-04-11T00:53:19.468Z,10.63
2019-04-11T00:55:49.763Z,10.65
2019-04-11T00:58:19.878Z,9.67
2019-04-11T01:00:51.342Z,10.63
2019-04-11T01:03:20.689Z,9.20
2019-04-11T01:05:50.147Z,10.40
2019-04-11T01:08:20.174Z,11.23
2019-04-11T01:10:49.774Z,10.03
2019-04-11T01:13:19.272Z,10.50
2019-04-11T01:16:03.578Z,9.57
2019-04-11T01:18:36.180Z,11.03
2019-04-11T01:21:06.214Z,9.33
2019-04-11T01:23:35.844Z,9.40
2019-04-11T01:26:05.348Z,8.37
2019-04-11T01:28:34.685Z,8.67
2019-04-11T01:31:09.469Z,10.10
2019-04-11T01:33:40.175Z,9.37
2019-04-11T01:36:09.585Z,11.37
2019-04-11T01:38:44.210Z,10.73
2019-04-11T01:41:14.095Z,10.58
2019-04-11T01:43:53.441Z,9.80
2019-04-11T01:46:14.699Z,10.50
2019-04-11T01:48:57.820Z,10.90
2019-04-11T01:51:27.258Z,10.93
2019-04-11T02:14:05.168Z,9.60
2019-04-11T02:16:27.281Z,9.33
2019-04-11T02:18:56.586Z,10.50
2019-04-11T02:21:25.970Z,9.90
2019-04-11T02:24:11.934Z,10.67
2019-04-11T02:26:46.553Z,10.40
2019-04-11T02:29:14.114Z,11.03
2019-04-11T02:31:44.514Z,10.67
2019-04-11T02:34:16.082Z,10.33
2019-04-11T02:36:45.610Z,10.67
2019-04-11T02:39:19.271Z,9.20
2019-04-11T02:41:46.844Z,11.00
2019-04-11T02:44:33.414Z,10.27
2019-04-11T02:46:58.141Z,8.53
2019-04-11T02:49:20.072Z,10.67
2019-04-11T02:51:51.304Z,9.53
2019-04-11T02:54:24.426Z,10.83
2019-04-11T02:56:54.794Z,9.43
2019-04-11T02:59:25.347Z,11.10
2019-04-11T03:01:55.844Z,9.33
2019-04-11T03:04:26.964Z,11.17
2019-04-11T03:06:57.392Z,9.63
2019-04-11T03:09:27.037Z,11.10
2019-04-11T03:11:56.833Z,9.27
2019-04-11T03:14:29.280Z,8.50
2019-04-11T03:17:09.325Z,10.23
2019-04-11T03:19:43.982Z,10.43
2019-04-11T03:22:03.134Z,10.43
2019-04-11T03:24:35.250Z,10.70
2019-04-11T03:27:04.954Z,8.13
2019-04-11T03:29:36.176Z,10.83
2019-04-11T03:35:21.015Z,9.57
2019-04-11T03:37:39.098Z,10.23
2019-04-11T03:40:07.895Z,11.03
2019-04-11T03:42:32.334Z,10.00
2019-04-11T03:44:50.739Z,9.87
2019-04-11T03:47:33.476Z,10.20
2019-04-11T03:49:55.815Z,10.93
2019-04-11T03:52:20.857Z,10.37
2019-04-11T03:54:50.502Z,8.83
2019-04-11T03:57:21.515Z,11.30
2019-04-11T03:59:54.534Z,10.07
2019-04-11T04:02:25.304Z,9.90
2019-04-11T04:04:57.072Z,9.50
2019-04-11T04:07:27.718Z,9.30
2019-04-11T04:09:58.543Z,7.93
2019-04-11T04:12:29.346Z,8.20
2019-04-11T04:15:01.418Z,10.63
2019-04-11T04:17:49.741Z,9.40
2019-04-11T04:20:22.324Z,10.80
2019-04-11T04:23:00.919Z,10.47
2019-04-11T04:25:30.544Z,10.37
2019-04-11T04:28:00.405Z,8.60
2019-04-11T04:30:30.560Z,11.00
2019-04-11T04:33:00.772Z,10.80
2019-04-11T04:35:33.642Z,10.13
2019-04-11T04:38:05.144Z,9.20
2019-04-11T04:40:53.810Z,10.50
2019-04-11T04:43:10.385Z,10.60
2019-04-11T04:46:04.933Z,10.80
2019-04-11T04:48:18.363Z,11.30
2019-04-11T04:50:47.263Z,11.53
2019-04-11T04:53:20.518Z,10.57
2019-04-11T04:55:52.210Z,9.10
2019-04-11T04:58:22.301Z,11.63
2019-04-11T05:00:54.281Z,10.33
2019-04-11T05:03:24.508Z,9.80
2019-04-11T05:05:55.309Z,11.03
2019-04-11T05:08:26.966Z,10.00
2019-04-11T05:10:57.856Z,10.47
2019-04-11T05:13:27.976Z,10.77
2019-04-11T05:16:08.531Z,12.07
2019-04-11T05:18:29.844Z,11.97
2019-04-11T05:20:59.312Z,10.43
2019-04-11T05:23:30.263Z,10.10
2019-04-11T05:26:00.175Z,11.97
2019-04-11T05:28:31.773Z,10.53
2019-04-11T05:31:02.486Z,12.73
2019-04-11T05:33:33.517Z,9.30
2019-04-11T05:39:56.870Z,8.90
2019-04-11T05:42:27.120Z,11.37
2019-04-11T05:44:56.995Z,8.30
2019-04-11T05:47:27.526Z,10.73
2019-04-11T05:49:58.982Z,9.10
2019-04-11T05:52:31.088Z,11.73
2019-04-11T05:55:03.429Z,10.40
2019-04-11T05:57:38.103Z,11.97
2019-04-11T06:00:16.319Z,11.43
2019-04-11T06:02:49.216Z,12.60
2019-04-11T06:05:23.854Z,13.30
2019-04-11T06:07:57.678Z,13.97
2019-04-11T06:10:37.011Z,14.77
2019-04-11T06:13:07.938Z,16.07
2019-04-11T06:15:42.517Z,16.87
2019-04-11T06:18:25.246Z,17.07
2019-04-11T06:20:53.707Z,14.33
2019-04-11T06:23:31.771Z,16.20
2019-04-11T06:26:21.300Z,15.43
2019-04-11T06:28:54.278Z,14.93
2019-04-11T06:31:45.382Z,15.50
2019-04-11T06:34:17.676Z,13.77
2019-04-11T06:36:49.613Z,13.37
2019-04-11T06:39:37.800Z,12.60
2019-04-11T06:42:24.437Z,13.30
2019-04-11T06:44:58.429Z,13.03
2019-04-11T06:47:38.854Z,12.07
2019-04-11T06:50:19.705Z,10.17
2019-04-11T06:52:50.918Z,11.83
2019-04-11T06:55:25.119Z,12.57
2019-04-11T06:58:05.069Z,11.53
2019-04-11T07:00:34.798Z,11.53
2019-04-11T07:03:17.474Z,10.70
2019-04-11T07:05:38.719Z,11.87
2019-04-11T07:08:08.149Z,12.10
2019-04-11T07:10:39.297Z,11.63
2019-04-11T07:13:20.681Z,11.10
2019-04-11T07:15:50.620Z,13.53
2019-04-11T07:18:37.715Z,11.87
2019-04-11T07:21:11.138Z,13.67
2019-04-11T07:24:05.370Z,11.73
2019-04-11T07:26:37.289Z,11.03
2019-04-11T07:29:33.814Z,10.73
2019-04-11T07:32:05.021Z,10.80
2019-04-11T07:34:54.365Z,10.03
2019-04-11T07:37:28.243Z,10.00
2019-04-11T07:40:07.715Z,8.97
2019-04-11T07:42:52.825Z,10.07
2019-04-11T07:45:38.526Z,10.07
2019-04-11T07:48:19.368Z,10.30
2019-04-11T07:50:48.884Z,9.13
2019-04-11T07:53:19.829Z,9.53
2019-04-11T07:55:49.446Z,10.53
2019-04-11T07:58:26.368Z,10.53
2019-04-11T08:01:10.377Z,10.40
2019-04-11T08:03:47.459Z,10.57
2019-04-11T08:06:26.957Z,10.23
2019-04-11T08:08:58.190Z,10.07
2019-04-11T08:11:29.160Z,10.43
2019-04-11T08:14:00.170Z,10.10
2019-04-11T08:16:31.209Z,9.87
2019-04-11T08:19:15.301Z,10.00
2019-04-11T08:22:03.129Z,11.10
2019-04-11T08:24:51.083Z,10.33
2019-04-11T08:27:23.216Z,9.27
2019-04-11T08:29:54.767Z,9.67
2019-04-11T08:32:25.764Z,10.13
2019-04-11T08:35:15.762Z,10.07
2019-04-11T08:38:05.030Z,9.50
2019-04-11T08:40:39.805Z,9.87
2019-04-11T08:43:21.244Z,10.67
2019-04-11T08:45:56.235Z,9.48
2019-04-11T08:48:28.913Z,9.80
2019-04-11T08:51:03.090Z,9.40
2019-04-11T08:53:37.199Z,9.57
2019-04-11T08:56:07.152Z,9.40
2019-04-11T08:58:49.004Z,8.77
2019-04-11T09:01:22.706Z,9.13
2019-04-11T09:04:03.011Z,8.87
2019-04-11T09:06:26.479Z,9.23
2019-04-11T09:09:00.671Z,9.87
2019-04-11T09:11:33.023Z,8.87
2019-04-11T09:14:04.623Z,9.63
2019-04-11T09:16:45.757Z,8.77
2019-04-11T09:19:32.963Z,8.63
2019-04-11T09:22:10.915Z,7.80
2019-04-11T09:24:43.109Z,8.70
2019-04-11T09:27:31.297Z,8.53
2019-04-11T09:30:19.068Z,8.53
2019-04-11T09:33:06.825Z,8.43
2019-04-11T09:35:51.242Z,8.30
2019-04-11T09:38:22.452Z,8.60
2019-04-11T09:41:09.672Z,7.80
2019-04-11T09:43:42.059Z,8.17
2019-04-11T09:46:30.251Z,8.33
2019-04-11T09:49:18.489Z,7.90
2019-04-11T09:51:53.948Z,8.40
2019-04-11T09:54:26.103Z,9.17
2019-04-11T09:57:06.005Z,9.07
2019-04-11T09:59:53.918Z,8.37
2019-04-11T10:02:38.252Z,8.47
2019-04-11T10:05:12.238Z,8.73
2019-04-11T10:07:55.299Z,8.90
2019-04-11T10:10:29.747Z,8.60
2019-04-11T10:13:16.890Z,8.57
2019-04-11T10:16:00.403Z,8.73
2019-04-11T10:18:44.083Z,8.87
2019-04-11T10:21:15.407Z,7.87
2019-04-11T10:24:05.155Z,8.33
2019-04-11T10:26:40.264Z,8.17
2019-04-11T10:29:30.146Z,7.83
2019-04-11T10:31:59.073Z,8.17
2019-04-11T10:34:47.935Z,7.60
2019-04-11T10:37:20.002Z,7.67
2019-04-11T10:39:53.754Z,8.40
2019-04-11T10:42:24.811Z,7.63
2019-04-11T10:45:12.245Z,7.37
2019-04-11T10:47:41.585Z,8.23
2019-04-11T10:50:23.696Z,7.77
2019-04-11T10:52:55.173Z,6.90
2019-04-11T10:55:29.565Z,7.43
2019-04-11T10:58:06.811Z,8.30
2019-04-11T11:00:53.875Z,7.73
2019-04-11T11:03:29.047Z,8.70
2019-04-11T11:06:00.136Z,8.00
2019-04-11T11:08:34.670Z,7.50
2019-04-11T11:11:16.019Z,7.53
2019-04-11T11:13:47.936Z,8.00
2019-04-11T11:16:20.173Z,8.30
2019-04-11T11:19:19.611Z,8.47
2019-04-11T11:21:29.405Z,7.93
2019-04-11T11:24:06.393Z,8.67
2019-04-11T11:26:33.774Z,7.90
2019-04-11T11:29:20.583Z,8.70
2019-04-11T11:31:54.677Z,7.60
2019-04-11T11:34:25.666Z,7.83
2019-04-11T11:36:56.831Z,7.77
2019-04-11T11:39:37.361Z,7.87
2019-04-11T11:42:24.410Z,7.73
2019-04-11T11:45:02.542Z,8.20
2019-04-11T11:47:51.177Z,8.00
2019-04-11T11:50:24.796Z,8.00
2019-04-11T11:53:13.165Z,7.93
2019-04-11T11:55:45.303Z,8.37
2019-04-11T11:58:27.918Z,8.67
2019-04-11T12:01:03.607Z,8.33
2019-04-11T12:03:32.963Z,8.20
2019-04-11T12:06:05.322Z,7.80
2019-04-11T12:08:51.866Z,8.50
2019-04-11T12:11:22.090Z,8.47
2019-04-11T12:14:11.600Z,8.47
2019-04-11T12:16:43.838Z,8.50
2019-04-11T12:19:18.045Z,8.17
2019-04-11T12:21:49.022Z,8.93
2019-04-11T12:24:32.334Z,8.50
2019-04-11T12:27:16.533Z,8.87
2019-04-11T12:29:53.531Z,8.53
2019-04-11T12:32:24.871Z,8.47
2019-04-11T12:34:59.807Z,8.77
2019-04-11T12:37:31.696Z,9.00
2019-04-11T12:40:02.759Z,8.53
2019-04-11T12:42:33.755Z,8.80
2019-04-11T12:45:06.553Z,8.80
2019-04-11T12:47:39.174Z,9.13
2019-04-11T12:50:15.798Z,8.97
2019-04-11T12:52:46.838Z,8.03
2019-04-11T12:55:17.963Z,8.23
2019-04-11T12:57:58.221Z,9.20
2019-04-11T13:00:35.965Z,9.40
2019-04-11T13:03:23.363Z,8.57
2019-04-11T13:05:59.815Z,8.90
2019-04-11T13:08:36.862Z,8.90
2019-04-11T13:11:08.946Z,8.40
2019-04-11T13:13:41.600Z,9.03
2019-04-11T13:16:15.198Z,8.90
2019-04-11T13:19:02.598Z,8.57
2019-04-11T13:21:43.455Z,8.63
2019-04-11T13:24:30.654Z,9.83
2019-04-11T13:27:15.418Z,9.07
2019-04-11T13:29:46.490Z,8.73
2019-04-11T13:32:32.791Z,9.03
2019-04-11T13:35:12.853Z,8.80
2019-04-11T13:38:00.857Z,8.97
2019-04-11T13:40:44.486Z,9.87
2019-04-11T13:43:32.721Z,9.10
2019-04-11T13:46:18.680Z,8.73
2019-04-11T13:49:06.059Z,9.17
2019-04-11T13:51:52.991Z,9.33
2019-04-11T13:54:41.888Z,9.10
2019-04-11T13:57:25.189Z,9.13
2019-04-11T14:00:12.955Z,9.43
2019-04-11T14:02:51.320Z,8.57
2019-04-11T14:05:20.492Z,8.65
2019-04-11T14:07:52.169Z,8.83
2019-04-11T14:10:22.911Z,8.60
2019-04-11T14:12:54.347Z,8.67
2019-04-11T14:15:29.276Z,9.57
2019-04-11T14:18:15.731Z,9.73
2019-04-11T14:20:46.824Z,9.43
2019-04-11T14:23:23.769Z,9.33
2019-04-11T14:26:01.968Z,9.03
2019-04-11T14:28:33.397Z,9.60
2019-04-11T14:31:04.407Z,9.07
2019-04-11T14:33:38.044Z,9.30
2019-04-11T14:36:33.119Z,9.57
2019-04-11T14:38:57.607Z,9.83
2019-04-11T14:41:28.603Z,9.57
2019-04-11T14:44:01.942Z,9.30
2019-04-11T14:46:50.781Z,9.23
2019-04-11T14:49:20.353Z,8.37
2019-04-11T14:51:52.178Z,8.40
2019-04-11T14:54:27.424Z,8.90
2019-04-11T14:57:01.374Z,9.57
2019-04-11T14:59:32.376Z,8.80
2019-04-11T15:02:04.242Z,8.80
2019-04-11T15:04:51.661Z,9.03
2019-04-11T15:07:22.090Z,9.07
2019-04-11T15:10:07.881Z,8.67
2019-04-11T15:12:38.941Z,9.50
2019-04-11T15:15:27.564Z,8.70
2019-04-11T15:17:59.018Z,9.03
2019-04-11T15:20:41.279Z,9.47
2019-04-11T15:23:17.762Z,8.73
2019-04-11T15:25:57.433Z,9.33
2019-04-11T15:28:28.515Z,8.57
2019-04-11T15:31:11.571Z,9.00
2019-04-11T15:33:55.751Z,8.80
2019-04-11T15:36:29.308Z,9.20
2019-04-11T15:39:12.414Z,9.47
2019-04-11T15:41:43.387Z,8.97
2019-04-11T15:44:30.997Z,8.73
2019-04-11T15:47:09.429Z,9.00
2019-04-11T15:49:52.512Z,9.00
2019-04-11T15:52:21.947Z,8.30
2019-04-11T15:54:59.124Z,8.83
2019-04-11T15:57:30.113Z,9.53
2019-04-11T16:00:18.903Z,8.93
2019-04-11T16:02:52.641Z,9.93
2019-04-11T16:05:31.653Z,9.67
2019-04-11T16:08:19.934Z,9.50
2019-04-11T16:10:59.689Z,8.87
2019-04-11T16:13:33.406Z,9.07
2019-04-11T16:16:11.897Z,9.00
2019-04-11T16:18:40.655Z,9.53
2019-04-11T16:21:18.885Z,9.13
2019-04-11T16:24:07.326Z,9.37
2019-04-11T16:26:47.202Z,9.30
2019-04-11T16:29:38.929Z,9.70
2019-04-11T16:32:09.843Z,8.77
2019-04-11T16:34:48.214Z,9.27
2019-04-11T16:37:12.497Z,9.17
2019-04-11T16:40:01.672Z,9.50
2019-04-11T16:42:32.690Z,9.33
2019-04-11T16:45:09.707Z,9.30
2019-04-11T16:47:40.711Z,9.43
2019-04-11T16:50:11.081Z,9.37
2019-04-11T16:52:42.833Z,10.17
2019-04-11T16:55:12.327Z,10.90
2019-04-11T16:57:44.198Z,10.07
2019-04-11T17:00:19.765Z,9.57
2019-04-11T17:02:46.646Z,8.97
2019-04-11T17:05:17.242Z,9.23
2019-04-11T17:07:50.902Z,9.43
2019-04-11T17:10:24.628Z,9.53
2019-04-11T17:12:56.634Z,9.10
2019-04-11T17:15:30.414Z,10.40
2019-04-11T17:17:59.743Z,10.63
2019-04-11T17:20:29.655Z,9.80
2019-04-11T17:23:00.711Z,9.30
2019-04-11T17:25:31.536Z,9.60
2019-04-11T17:28:00.907Z,9.63
2019-04-11T17:30:30.354Z,10.37
2019-04-11T17:33:00.733Z,9.73
2019-04-11T17:35:31.699Z,9.47
2019-04-11T17:38:04.080Z,9.43
2019-04-11T17:40:34.933Z,9.27
2019-04-11T17:43:05.132Z,9.87
2019-04-11T17:45:35.082Z,9.13
2019-04-11T17:48:06.147Z,9.17
2019-04-11T17:50:36.066Z,9.48
2019-04-11T17:53:05.451Z,10.23
2019-04-11T17:55:34.834Z,9.37
2019-04-11T17:58:04.970Z,9.70
2019-04-11T18:00:44.572Z,9.80
2019-04-11T18:03:13.928Z,9.87
2019-04-11T18:05:46.865Z,10.50
2019-04-11T18:08:14.635Z,9.60
2019-04-11T18:10:44.851Z,9.87
2019-04-11T18:13:16.553Z,9.70
2019-04-11T18:15:48.741Z,9.77
2019-04-11T18:18:18.114Z,10.73
2019-04-11T18:20:47.542Z,10.17
2019-04-11T18:23:19.646Z,10.23
2019-04-11T18:25:48.948Z,9.60
2019-04-11T18:28:21.700Z,10.07
2019-04-11T18:30:54.119Z,10.53
2019-04-11T18:33:23.804Z,8.80
2019-04-11T18:35:54.704Z,10.10
2019-04-11T18:38:25.735Z,10.90
2019-04-11T18:40:55.101Z,10.03
2019-04-11T18:43:25.559Z,10.47
2019-04-11T18:45:55.517Z,10.27
2019-04-11T18:48:24.926Z,10.80
2019-04-11T18:50:54.260Z,9.70
2019-04-11T18:53:23.640Z,10.30
2019-04-11T18:55:52.998Z,9.57
2019-04-11T18:58:23.923Z,10.40
2019-04-11T19:00:53.339Z,9.90
2019-04-11T19:03:22.693Z,9.83
2019-04-11T19:05:52.055Z,10.77
2019-04-11T19:08:21.577Z,9.77
2019-04-11T19:10:50.970Z,10.43
2019-04-11T19:13:20.324Z,9.90
2019-04-11T19:15:50.357Z,9.80
2019-04-11T19:18:19.743Z,9.57
2019-04-11T19:20:50.305Z,9.90
2019-04-11T19:23:20.318Z,10.33
2019-04-11T19:25:51.359Z,9.53
2019-04-11T19:28:24.929Z,10.17
2019-04-11T19:30:53.947Z,9.50
2019-04-11T19:33:22.968Z,10.80
2019-04-11T19:35:52.320Z,9.73
2019-04-11T19:38:25.815Z,10.30
2019-04-11T19:40:58.742Z,10.37
2019-04-11T19:43:28.087Z,11.30
2019-04-11T19:45:58.715Z,11.07
2019-04-11T19:48:28.288Z,10.40
2019-04-11T19:50:58.992Z,11.53
2019-04-11T19:53:33.017Z,11.40
2019-04-11T19:56:05.371Z,9.93
2019-04-11T19:58:35.324Z,10.60
2019-04-11T20:01:05.791Z,11.00
2019-04-11T20:03:36.712Z,11.00
2019-04-11T20:06:06.071Z,9.50
2019-04-11T20:08:35.476Z,9.63
2019-04-11T20:11:04.983Z,10.83
2019-04-11T20:13:34.349Z,10.90
2019-04-11T20:16:04.295Z,10.60
2019-04-11T20:18:36.428Z,9.33
2019-04-11T20:21:08.198Z,10.77
2019-04-11T20:23:41.471Z,10.27
2019-04-11T20:26:08.703Z,10.63
2019-04-11T20:28:39.184Z,10.73
2019-04-11T20:31:10.143Z,11.20
2019-04-11T20:33:39.438Z,9.10
2019-04-11T20:36:11.285Z,8.80
2019-04-11T20:38:44.812Z,9.73
2019-04-11T20:41:14.681Z,8.77
2019-04-11T20:43:44.037Z,8.60
2019-04-11T20:46:13.495Z,9.00
2019-04-11T20:48:45.159Z,11.40
2019-04-11T20:51:14.546Z,10.70
2019-04-11T20:53:43.944Z,9.73
2019-04-11T20:56:23.606Z,8.13
2019-04-11T20:58:44.520Z,9.33
2019-04-11T21:01:14.567Z,9.77
2019-04-11T21:03:45.224Z,10.17
2019-04-11T21:06:14.575Z,8.87
2019-04-11T21:08:44.019Z,9.93
2019-04-11T21:11:13.362Z,9.20
2019-04-11T21:13:42.823Z,10.50
2019-04-11T21:16:16.155Z,10.63
2019-04-11T21:18:45.501Z,9.73
2019-04-11T21:21:17.561Z,10.33
2019-04-11T21:23:48.489Z,9.00
2019-04-11T21:26:18.890Z,8.63
2019-04-11T21:28:49.338Z,7.80
2019-04-11T21:31:20.600Z,8.48
2019-04-11T21:33:51.498Z,9.73
2019-04-11T21:36:22.432Z,8.40
2019-04-11T21:38:52.616Z,8.43
2019-04-11T21:41:22.619Z,8.90
2019-04-11T21:43:52.622Z,8.57
2019-04-11T21:46:26.750Z,9.40
2019-04-11T21:48:56.063Z,7.93
2019-04-11T21:51:26.992Z,8.97
2019-04-11T21:53:57.393Z,9.03
2019-04-11T21:56:29.946Z,8.30
2019-04-11T21:58:59.299Z,9.73
2019-04-11T22:01:29.742Z,8.60
2019-04-11T22:03:59.377Z,8.83
2019-04-11T22:06:30.505Z,9.37
2019-04-11T22:08:59.900Z,9.20
2019-04-11T22:11:29.329Z,10.53
2019-04-11T22:13:58.802Z,8.87
2019-04-11T22:16:28.281Z,7.57
2019-04-11T22:18:57.714Z,9.43
2019-04-11T22:21:27.083Z,9.60
2019-04-11T22:23:58.375Z,10.03
2019-04-11T22:26:27.900Z,10.27
2019-04-11T22:28:57.338Z,8.67
2019-04-11T22:31:26.699Z,8.70
2019-04-11T22:33:57.971Z,10.17
2019-04-11T22:36:30.838Z,9.95
2019-04-11T22:39:02.692Z,8.37
2019-04-11T22:41:34.411Z,10.33
2019-04-11T22:44:07.795Z,8.67
2019-04-11T22:46:38.358Z,9.63
2019-04-11T22:49:08.956Z,8.00
2019-04-11T22:51:43.422Z,10.63
2019-04-11T22:54:13.172Z,9.80
2019-04-11T22:56:44.194Z,9.43
2019-04-11T22:59:14.728Z,9.20
2019-04-11T23:01:47.073Z,9.43
2019-04-11T23:04:17.174Z,9.57
2019-04-11T23:06:47.852Z,7.77
2019-04-11T23:09:19.475Z,9.83
2019-04-11T23:11:52.233Z,11.20
2019-04-11T23:14:21.615Z,9.77
2019-04-11T23:16:51.015Z,10.40
2019-04-11T23:19:20.934Z,8.33
2019-04-11T23:21:54.243Z,9.70
2019-04-11T23:24:24.939Z,9.50
2019-04-11T23:26:54.592Z,9.57
2019-04-11T23:29:23.951Z,8.90
2019-04-11T23:31:53.324Z,9.00
2019-04-11T23:34:22.778Z,9.50
2019-04-11T23:36:54.342Z,9.07
2019-04-11T23:39:23.718Z,7.17
2019-04-11T23:41:55.903Z,9.00
2019-04-11T23:44:25.284Z,9.80
2019-04-11T23:46:55.577Z,8.35
2019-04-11T23:49:25.257Z,8.20
2019-04-11T23:51:56.771Z,9.33
2019-04-11T23:54:29.217Z,9.23
2019-04-11T23:57:00.960Z,7.90
2019-04-11T23:59:31.995Z,8.90
